KABY/ABY METAR and TAF weather

Enter ICAO airport designator
Station Type Date Time Source
KABY METAR 2019/08/21 01:53 UTC NOAA

KABY 210153Z AUTO 00000KT 10SM CLR 27/24 A3011 RMK AO2 SLP195 T02670244


Station Type Date Time Source
KABY Decoded METAR 2019/08/21 01:53 UTC NOAA

Station name not available
Aug 20, 2019 - 09:53 PM EDT / 2019.08.21 0153 UTC
Wind: Calm:0
Visibility: 10 mile(s):0
Sky conditions: clear
Temperature: 80.1 F (26.7 C)
Dew Point: 75.9 F (24.4 C)
Relative Humidity: 87%
Pressure (altimeter): 30.11 in. Hg (1019 hPa)
ob: KABY 210153Z AUTO 00000KT 10SM CLR 27/24 A3011 RMK AO2 SLP195 T02670244
cycle: 2

Station Type Date Time Source
KABY TAF 2019/08/20 18:30 UTC NOAA

TAF KABY 201727Z 2018/2118 17006KT P6SM VCTS BKN035CB
TEMPO 2018/2022 VRB10G20KT 2SM TSRA SCT015 BKN025CB
FM210000 16004KT P6SM BKN100

Example: see airport list